Macondo — 3EYB9 — position and weather

sailwx.info

Track history (hours):
 
Tides and Currents Weather Stations Pressure Air Temp Water Temp Dewpoint Dewpoint Depression Visibility Wind Speed Wind Dir Waves Ship Positions

Macondo

Last reported at 2015-May-15 03:16 UTC. Time now 2015-May-28 20:13 UTC.
Position N 19°17' W 095°12'.
Warning: this ship's position is 13 days out of date.

Length 120 m; draft 4.8 m.

Type: Ship. MMSI: 371293000.

Date/timePositionNaut miles runAvg speedWind from/ knotsBaromVisibWave heightAir tempDewpointWater temp
2015-May-15 03:16N 19°17' W 095°12'7 8.8
2015-May-15 02:27N 19°22' W 095°17'  
2015-May-08 17:13N 25°45' W 079°33'6 9.5
2015-May-08 16:34N 25°51' W 079°32'10 9.5
2015-May-08 15:33N 26°00' W 079°32'10 9.7
2015-May-08 14:32N 26°10' W 079°30'9 9.5
2015-May-08 13:33N 26°19' W 079°29'9 9.4
2015-May-08 12:33N 26°29' W 079°28'9 9.2
2015-May-08 11:33N 26°38' W 079°27'9 9.2
2015-May-08 10:33N 26°47' W 079°26'  
Track history (hours):
 
Tides and Currents Weather Stations Pressure Air Temp Water Temp Dewpoint Dewpoint Depression Visibility Wind Speed Wind Dir Waves Ship Positions

Macondo

Last reported at 2015-May-15 03:16 UTC. Time now 2015-May-28 20:13 UTC.
Position N 19°17' W 095°12'.
Warning: this ship's position is 13 days out of date.

Length 120 m; draft 4.8 m.

Type: Ship. MMSI: 371293000.

Date/timePositionNaut miles runAvg speedWind from/ knotsBaromVisibWave heightAir tempDewpointWater temp
2015-May-15 03:16N 19°17' W 095°12'7 8.8
2015-May-15 02:27N 19°22' W 095°17'  
2015-May-08 17:13N 25°45' W 079°33'6 9.5
2015-May-08 16:34N 25°51' W 079°32'10 9.5
2015-May-08 15:33N 26°00' W 079°32'10 9.7
2015-May-08 14:32N 26°10' W 079°30'9 9.5
2015-May-08 13:33N 26°19' W 079°29'9 9.4
2015-May-08 12:33N 26°29' W 079°28'9 9.2
2015-May-08 11:33N 26°38' W 079°27'9 9.2
2015-May-08 10:33N 26°47' W 079°26'  

Dump ship's entire track history